createdAt,value
2018-11-10T00:00:10.197Z,33.23
2018-11-10T00:02:38.584Z,31.27
2018-11-10T00:05:07.004Z,31.47
2018-11-10T00:07:35.381Z,31.33
2018-11-10T00:10:03.961Z,30.57
2018-11-10T00:12:32.296Z,30.70
2018-11-10T00:15:01.605Z,29.77
2018-11-10T00:17:29.976Z,32.43
2018-11-10T00:19:58.843Z,30.77
2018-11-10T00:22:27.255Z,28.93
2018-11-10T00:24:55.738Z,29.83
2018-11-10T00:27:24.171Z,31.90
2018-11-10T00:29:53.362Z,30.07
2018-11-10T00:32:22.157Z,31.07
2018-11-10T00:34:50.583Z,29.73
2018-11-10T00:37:18.917Z,31.27
2018-11-10T00:39:47.341Z,29.37
2018-11-10T00:42:15.702Z,31.23
2018-11-10T00:44:44.116Z,31.50
2018-11-10T00:47:12.489Z,28.83
2018-11-10T00:49:40.913Z,27.47
2018-11-10T00:52:09.355Z,30.93
2018-11-10T00:54:37.785Z,30.10
2018-11-10T00:57:06.177Z,31.50
2018-11-10T00:59:34.528Z,31.33
2018-11-10T01:02:02.911Z,29.53
2018-11-10T01:04:31.290Z,30.90
2018-11-10T01:06:59.657Z,31.23
2018-11-10T01:09:28.153Z,27.30
2018-11-10T01:11:56.516Z,30.70
2018-11-10T01:14:25.314Z,29.77
2018-11-10T01:16:53.667Z,29.37
2018-11-10T01:19:22.045Z,27.83
2018-11-10T01:21:50.414Z,30.13
2018-11-10T01:24:18.792Z,28.13
2018-11-10T01:26:47.139Z,30.27
2018-11-10T01:29:15.561Z,28.37
2018-11-10T01:31:43.949Z,30.23
2018-11-10T01:34:12.327Z,30.43
2018-11-10T01:36:40.688Z,29.53
2018-11-10T01:39:09.973Z,30.97
2018-11-10T01:41:38.969Z,29.07
2018-11-10T01:44:07.965Z,29.77
2018-11-10T01:46:36.463Z,28.03
2018-11-10T01:49:05.029Z,29.40
2018-11-10T01:51:33.421Z,28.90
2018-11-10T01:54:02.081Z,30.37
2018-11-10T01:56:30.981Z,30.07
2018-11-10T01:58:59.429Z,28.97
2018-11-10T02:01:28.665Z,28.90
2018-11-10T02:03:57.136Z,30.50
2018-11-10T02:06:25.572Z,29.63
2018-11-10T02:08:53.941Z,28.07
2018-11-10T02:11:22.337Z,29.87
2018-11-10T02:13:50.704Z,30.53
2018-11-10T02:16:19.099Z,28.20
2018-11-10T02:18:47.475Z,29.23
2018-11-10T02:21:15.832Z,27.23
2018-11-10T02:23:44.247Z,26.90
2018-11-10T02:26:12.645Z,29.93
2018-11-10T02:28:41.055Z,28.17
2018-11-10T02:31:09.410Z,30.20
2018-11-10T02:33:37.785Z,29.10
2018-11-10T02:36:06.165Z,27.33
2018-11-10T02:38:34.613Z,27.43
2018-11-10T02:41:03.033Z,28.90
2018-11-10T02:43:31.430Z,27.37
2018-11-10T02:45:59.781Z,28.10
2018-11-10T02:48:28.161Z,28.93
2018-11-10T02:50:56.561Z,27.30
2018-11-10T02:53:24.912Z,28.33
2018-11-10T02:55:53.272Z,28.87
2018-11-10T02:58:21.633Z,25.57
2018-11-10T03:00:50.025Z,29.27
2018-11-10T03:03:18.395Z,29.77
2018-11-10T03:05:46.760Z,30.27
2018-11-10T03:08:15.117Z,27.57
2018-11-10T03:10:44.143Z,28.40
2018-11-10T03:13:12.916Z,28.40
2018-11-10T03:15:41.292Z,26.90
2018-11-10T03:18:09.642Z,26.97
2018-11-10T03:20:38.032Z,28.60
2018-11-10T03:23:06.434Z,27.80
2018-11-10T03:25:34.844Z,28.53
2018-11-10T03:28:03.257Z,27.97
2018-11-10T03:30:31.701Z,27.87
2018-11-10T03:33:00.069Z,27.63
2018-11-10T03:35:28.465Z,26.13
2018-11-10T03:37:56.891Z,26.37
2018-11-10T03:40:26.073Z,27.00
2018-11-10T03:42:55.298Z,26.60
2018-11-10T03:45:23.986Z,28.83
2018-11-10T03:47:52.496Z,27.73
2018-11-10T03:50:20.911Z,27.07
2018-11-10T03:52:49.274Z,26.70
2018-11-10T03:55:17.687Z,26.47
2018-11-10T03:57:46.087Z,24.77
2018-11-10T04:00:15.385Z,24.07
2018-11-10T04:02:45.009Z,24.87
2018-11-10T04:05:13.873Z,26.60
2018-11-10T04:07:43.572Z,24.60
2018-11-10T04:10:12.416Z,24.90
2018-11-10T04:12:40.960Z,24.67
2018-11-10T04:15:09.365Z,27.83
2018-11-10T04:17:37.772Z,24.97
2018-11-10T04:20:07.222Z,25.73
2018-11-10T04:22:36.624Z,26.87
2018-11-10T04:25:06.623Z,27.13
2018-11-10T04:27:35.195Z,24.40
2018-11-10T04:30:04.729Z,25.27
2018-11-10T04:32:33.625Z,24.63
2018-11-10T04:35:02.014Z,25.47
2018-11-10T04:37:30.402Z,23.90
2018-11-10T04:39:59.193Z,25.70
2018-11-10T04:42:27.552Z,22.90
2018-11-10T04:44:55.958Z,22.37
2018-11-10T04:47:24.364Z,22.90
2018-11-10T04:49:52.770Z,21.57
2018-11-10T04:52:21.133Z,23.10
2018-11-10T04:54:49.519Z,22.63
2018-11-10T04:57:17.885Z,22.63
2018-11-10T04:59:46.227Z,22.30
2018-11-10T05:02:14.607Z,22.47
2018-11-10T05:04:43.011Z,21.80
2018-11-10T05:07:11.403Z,21.77
2018-11-10T05:09:39.752Z,23.50
2018-11-10T05:12:08.099Z,23.47
2018-11-10T05:14:36.481Z,23.50
2018-11-10T05:17:05.428Z,20.93
2018-11-10T05:19:33.801Z,21.47
2018-11-10T05:22:02.305Z,22.50
2018-11-10T05:24:30.706Z,23.87
2018-11-10T05:26:59.120Z,23.03
2018-11-10T05:29:27.488Z,21.00
2018-11-10T05:31:56.452Z,22.07
2018-11-10T05:34:24.810Z,20.93
2018-11-10T05:36:53.184Z,22.03
2018-11-10T05:39:21.533Z,21.83
2018-11-10T05:41:50.321Z,21.97
2018-11-10T05:44:19.981Z,21.20
2018-11-10T05:46:48.364Z,20.30
2018-11-10T05:49:16.956Z,20.30
2018-11-10T05:51:46.160Z,21.37
2018-11-10T05:54:14.592Z,20.70
2018-11-10T05:56:43.712Z,20.63
2018-11-10T05:59:12.085Z,21.37
2018-11-10T06:01:40.463Z,22.17
2018-11-10T06:04:08.867Z,22.70
2018-11-10T06:06:37.320Z,19.57
2018-11-10T06:09:08.365Z,21.30
2018-11-10T06:11:37.252Z,21.60
2018-11-10T06:14:05.972Z,21.97
2018-11-10T06:16:34.482Z,19.77
2018-11-10T06:19:03.302Z,20.53
2018-11-10T06:21:31.679Z,20.80
2018-11-10T06:24:00.032Z,20.97
2018-11-10T06:26:28.989Z,21.03
2018-11-10T06:28:57.385Z,18.73
2018-11-10T06:31:25.753Z,20.33
2018-11-10T06:33:54.405Z,21.03
2018-11-10T06:36:22.789Z,20.33
2018-11-10T06:38:51.335Z,20.03
2018-11-10T06:41:19.740Z,19.63
2018-11-10T06:43:48.597Z,20.57
2018-11-10T06:46:17.172Z,19.43
2018-11-10T06:48:45.565Z,19.60
2018-11-10T06:51:13.920Z,18.53
2018-11-10T06:53:42.529Z,18.90
2018-11-10T06:56:11.492Z,18.60
2018-11-10T06:58:40.826Z,19.50
2018-11-10T07:01:09.635Z,19.07
2018-11-10T07:03:38.099Z,19.97
2018-11-10T07:06:06.833Z,18.97
2018-11-10T07:08:35.201Z,19.27
2018-11-10T07:11:03.619Z,20.53
2018-11-10T07:13:31.953Z,20.40
2018-11-10T07:16:00.296Z,21.30
2018-11-10T07:18:28.812Z,19.90
2018-11-10T07:20:57.166Z,21.50
2018-11-10T07:23:25.539Z,21.27
2018-11-10T07:25:53.917Z,19.97
2018-11-10T07:28:22.430Z,20.63
2018-11-10T07:30:51.049Z,20.23
2018-11-10T07:33:19.407Z,20.80
2018-11-10T07:35:47.807Z,20.63
2018-11-10T07:38:16.185Z,20.90
2018-11-10T07:40:44.533Z,22.73
2018-11-10T07:43:13.143Z,21.37
2018-11-10T07:45:41.570Z,20.13
2018-11-10T07:48:10.006Z,21.50
2018-11-10T07:50:38.395Z,21.47
2018-11-10T07:53:06.804Z,20.13
2018-11-10T07:55:35.319Z,22.17
2018-11-10T07:58:03.663Z,20.60
2018-11-10T08:00:32.148Z,22.97
2018-11-10T08:03:01.039Z,22.10
2018-11-10T08:05:29.863Z,21.67
2018-11-10T08:07:58.267Z,21.00
2018-11-10T08:10:26.658Z,23.60
2018-11-10T08:12:55.005Z,23.87
2018-11-10T08:15:23.581Z,24.07
2018-11-10T08:17:52.582Z,22.47
2018-11-10T08:20:21.366Z,22.20
2018-11-10T08:22:49.953Z,22.80
2018-11-10T08:25:18.327Z,23.90
2018-11-10T08:27:46.681Z,23.10
2018-11-10T08:30:15.735Z,24.30
2018-11-10T08:32:44.529Z,24.67
2018-11-10T08:35:14.851Z,24.10
2018-11-10T08:37:43.368Z,23.37
2018-11-10T08:40:14.361Z,23.27
2018-11-10T08:42:42.824Z,24.50
2018-11-10T08:45:12.470Z,24.17
2018-11-10T08:47:41.557Z,23.33
2018-11-10T08:50:11.164Z,24.80
2018-11-10T08:52:39.949Z,26.17
2018-11-10T08:55:08.947Z,24.30
2018-11-10T08:57:38.038Z,25.53
2018-11-10T09:00:07.823Z,27.00
2018-11-10T09:02:36.905Z,25.67
2018-11-10T09:05:06.247Z,26.23
2018-11-10T09:07:34.803Z,24.50
2018-11-10T09:10:03.212Z,26.00
2018-11-10T09:12:31.562Z,25.67
2018-11-10T09:14:59.975Z,26.00
2018-11-10T09:17:28.871Z,28.10
2018-11-10T09:19:58.606Z,28.17
2018-11-10T09:22:27.516Z,26.50
2018-11-10T09:24:55.975Z,28.13
2018-11-10T09:27:24.338Z,25.20
2018-11-10T09:29:52.771Z,27.20
2018-11-10T09:32:21.113Z,26.47
2018-11-10T09:34:49.488Z,27.13
2018-11-10T09:37:17.912Z,26.83
2018-11-10T09:39:46.856Z,26.70
2018-11-10T09:42:15.273Z,28.47
2018-11-10T09:44:43.668Z,27.57
2018-11-10T09:47:13.345Z,26.63
2018-11-10T09:49:41.753Z,26.63
2018-11-10T09:52:10.107Z,28.03
2018-11-10T09:54:38.521Z,26.57
2018-11-10T09:57:06.924Z,26.37
2018-11-10T09:59:35.321Z,27.80
2018-11-10T10:02:04.047Z,26.77
2018-11-10T10:04:32.102Z,26.70
2018-11-10T10:07:00.465Z,26.90
2018-11-10T10:09:28.855Z,28.23
2018-11-10T10:11:57.291Z,26.57
2018-11-10T10:14:25.669Z,27.00
2018-11-10T10:16:54.048Z,26.43
2018-11-10T10:19:22.469Z,27.47
2018-11-10T10:21:50.918Z,26.47
2018-11-10T10:24:19.265Z,25.73
2018-11-10T10:26:47.620Z,27.73
2018-11-10T10:29:16.023Z,27.63
2018-11-10T10:31:44.531Z,25.43
2018-11-10T10:34:12.958Z,27.20
2018-11-10T10:36:41.293Z,25.40
2018-11-10T10:39:10.315Z,24.97
2018-11-10T10:41:39.307Z,26.37
2018-11-10T10:44:08.699Z,26.30
2018-11-10T10:46:37.112Z,25.43
2018-11-10T10:49:06.295Z,25.77
2018-11-10T10:51:35.061Z,26.57
2018-11-10T10:54:03.436Z,28.20
2018-11-10T10:56:31.855Z,26.67
2018-11-10T10:59:00.213Z,26.20
2018-11-10T11:01:33.836Z,27.80
2018-11-10T11:04:09.389Z,26.57
2018-11-10T11:06:37.741Z,26.50
2018-11-10T11:09:07.406Z,24.63
2018-11-10T11:11:35.882Z,25.53
2018-11-10T11:14:04.235Z,24.90
2018-11-10T11:16:32.581Z,25.20
2018-11-10T11:19:00.945Z,26.00
2018-11-10T11:21:29.329Z,25.67
2018-11-10T11:23:57.701Z,24.03
2018-11-10T11:26:26.073Z,26.63
2018-11-10T11:28:54.451Z,24.63
2018-11-10T11:31:22.849Z,23.53
2018-11-10T11:33:51.273Z,23.80
2018-11-10T11:36:19.616Z,23.10
2018-11-10T11:38:47.997Z,24.23
2018-11-10T11:41:16.433Z,23.80
2018-11-10T11:43:44.785Z,23.47
2018-11-10T11:46:13.148Z,23.07
2018-11-10T11:48:41.524Z,24.33
2018-11-10T11:51:09.963Z,24.90
2018-11-10T11:53:38.388Z,22.97
2018-11-10T11:56:06.748Z,23.90
2018-11-10T11:58:35.143Z,23.23
2018-11-10T12:01:03.744Z,22.17
2018-11-10T12:03:32.109Z,23.83
2018-11-10T12:06:00.471Z,22.70
2018-11-10T12:08:29.008Z,22.77
2018-11-10T12:10:57.385Z,21.83
2018-11-10T12:13:25.758Z,23.10
2018-11-10T12:15:54.132Z,22.47
2018-11-10T12:18:22.545Z,22.33
2018-11-10T12:20:50.971Z,20.90
2018-11-10T12:23:19.349Z,21.67
2018-11-10T12:25:47.933Z,21.27
2018-11-10T12:28:16.332Z,19.27
2018-11-10T12:30:44.719Z,21.40
2018-11-10T12:33:13.123Z,20.70
2018-11-10T12:35:41.664Z,20.17
2018-11-10T12:38:10.038Z,19.70
2018-11-10T12:40:38.408Z,21.80
2018-11-10T12:43:06.852Z,21.20
2018-11-10T12:45:35.227Z,21.27
2018-11-10T12:48:03.612Z,22.10
2018-11-10T12:50:31.979Z,22.23
2018-11-10T12:53:00.452Z,19.67
2018-11-10T12:55:28.816Z,21.37
2018-11-10T12:57:57.234Z,21.00
2018-11-10T13:00:25.629Z,22.03
2018-11-10T13:02:54.056Z,20.83
2018-11-10T13:05:22.450Z,22.03
2018-11-10T13:07:50.840Z,20.13
2018-11-10T13:10:19.189Z,20.53
2018-11-10T13:12:48.211Z,20.97
2018-11-10T13:15:17.102Z,20.50
2018-11-10T13:17:45.505Z,22.00
2018-11-10T13:20:15.018Z,21.87
2018-11-10T13:22:43.460Z,23.17
2018-11-10T13:25:12.806Z,20.77
2018-11-10T13:27:41.238Z,21.40
2018-11-10T13:30:11.403Z,21.93
2018-11-10T13:32:39.791Z,20.50
2018-11-10T13:35:08.979Z,22.20
2018-11-10T13:37:37.372Z,23.17
2018-11-10T13:40:06.403Z,22.33
2018-11-10T13:42:34.764Z,19.87
2018-11-10T13:45:03.522Z,21.63
2018-11-10T13:47:32.405Z,19.53
2018-11-10T13:50:01.547Z,19.80
2018-11-10T13:52:30.246Z,22.23
2018-11-10T13:54:58.373Z,19.80
2018-11-10T13:57:26.750Z,20.33
2018-11-10T13:59:55.141Z,20.83
2018-11-10T14:02:23.546Z,22.67
2018-11-10T14:04:51.959Z,22.47
2018-11-10T14:07:20.353Z,22.77
2018-11-10T14:09:48.785Z,21.70
2018-11-10T14:12:17.199Z,22.80
2018-11-10T14:14:45.613Z,22.27
2018-11-10T14:17:14.324Z,21.77
2018-11-10T14:19:43.122Z,20.27
2018-11-10T14:22:12.047Z,21.33
2018-11-10T14:24:40.461Z,22.37
2018-11-10T14:27:08.875Z,23.43
2018-11-10T14:29:37.389Z,21.40
2018-11-10T14:32:06.376Z,21.53
2018-11-10T14:34:34.727Z,20.80
2018-11-10T14:37:03.588Z,21.03
2018-11-10T14:39:31.971Z,19.23
2018-11-10T14:42:00.378Z,21.60
2018-11-10T14:44:28.794Z,21.80
2018-11-10T14:46:57.181Z,20.30
2018-11-10T14:49:25.816Z,19.70
2018-11-10T14:51:54.271Z,20.37
2018-11-10T14:54:22.707Z,20.70
2018-11-10T14:56:51.054Z,21.00
2018-11-10T14:59:19.478Z,19.13
2018-11-10T15:01:47.864Z,19.87
2018-11-10T15:04:16.634Z,21.13
2018-11-10T15:06:45.033Z,21.93
2018-11-10T15:09:13.444Z,19.10
2018-11-10T15:11:41.911Z,19.47
2018-11-10T15:14:10.227Z,21.70
2018-11-10T15:16:38.607Z,20.60
2018-11-10T15:19:07.376Z,21.83
2018-11-10T15:21:35.743Z,20.87
2018-11-10T15:24:04.220Z,20.03
2018-11-10T15:26:32.643Z,21.37
2018-11-10T15:29:01.655Z,20.17
2018-11-10T15:31:30.041Z,22.03
2018-11-10T15:33:58.421Z,21.53
2018-11-10T15:36:26.790Z,21.27
2018-11-10T15:38:55.174Z,20.53
2018-11-10T15:41:23.996Z,21.80
2018-11-10T15:43:52.412Z,20.67
2018-11-10T15:46:20.763Z,23.00
2018-11-10T15:48:49.132Z,22.27
2018-11-10T15:51:17.525Z,19.60
2018-11-10T15:53:45.904Z,20.47
2018-11-10T15:56:14.281Z,22.90
2018-11-10T15:58:42.795Z,22.47
2018-11-10T16:01:11.155Z,22.50
2018-11-10T16:03:39.548Z,22.03
2018-11-10T16:06:07.928Z,22.20
2018-11-10T16:08:36.296Z,21.93
2018-11-10T16:11:05.036Z,22.40
2018-11-10T16:13:33.548Z,22.57
2018-11-10T16:16:01.955Z,21.10
2018-11-10T16:18:30.302Z,22.97
2018-11-10T16:20:58.797Z,21.37
2018-11-10T16:23:27.161Z,20.63
2018-11-10T16:25:55.525Z,21.73
2018-11-10T16:28:23.977Z,21.83
2018-11-10T16:30:52.358Z,22.20
2018-11-10T16:33:20.752Z,22.07
2018-11-10T16:35:49.099Z,22.60
2018-11-10T16:38:17.479Z,22.60
2018-11-10T16:40:45.920Z,21.33
2018-11-10T16:43:14.368Z,23.40
2018-11-10T16:45:43.190Z,21.17
2018-11-10T16:48:11.608Z,22.00
2018-11-10T16:50:39.985Z,21.83
2018-11-10T16:53:08.455Z,21.83
2018-11-10T16:55:36.815Z,22.50
2018-11-10T16:58:05.602Z,23.37
2018-11-10T17:00:34.046Z,22.93
2018-11-10T17:03:02.425Z,23.67
2018-11-10T17:05:30.768Z,24.60
2018-11-10T17:07:59.153Z,21.97
2018-11-10T17:10:27.528Z,22.87
2018-11-10T17:12:56.004Z,22.57
2018-11-10T17:15:24.457Z,22.87
2018-11-10T17:17:53.755Z,23.90
2018-11-10T17:20:22.617Z,23.77
2018-11-10T17:22:51.015Z,23.27
2018-11-10T17:25:20.064Z,23.17
2018-11-10T17:27:48.459Z,24.63
2018-11-10T17:30:18.625Z,23.50
2018-11-10T17:32:47.002Z,24.07
2018-11-10T17:35:15.729Z,22.77
2018-11-10T17:37:44.812Z,23.60
2018-11-10T17:40:14.248Z,25.33
2018-11-10T17:42:42.643Z,23.13
2018-11-10T17:45:12.901Z,22.90
2018-11-10T17:47:41.885Z,23.40
2018-11-10T17:50:11.603Z,24.40
2018-11-10T17:52:41.712Z,22.73
2018-11-10T17:55:11.728Z,23.03
2018-11-10T17:57:40.736Z,23.97
2018-11-10T18:00:09.081Z,23.57
2018-11-10T18:02:37.837Z,23.23
2018-11-10T18:05:07.916Z,23.47
2018-11-10T18:07:36.331Z,23.50
2018-11-10T18:10:05.389Z,23.47
2018-11-10T18:12:33.934Z,23.53
2018-11-10T18:15:02.415Z,23.73
2018-11-10T18:17:30.796Z,23.37
2018-11-10T18:19:59.161Z,24.00
2018-11-10T18:22:27.529Z,23.83
2018-11-10T18:24:55.910Z,23.30
2018-11-10T18:27:24.289Z,24.17
2018-11-10T18:29:52.659Z,24.13
2018-11-10T18:32:21.241Z,25.40
2018-11-10T18:34:49.640Z,25.60
2018-11-10T18:37:18.302Z,24.70
2018-11-10T18:39:47.279Z,24.20
2018-11-10T18:42:15.823Z,23.97
2018-11-10T18:44:44.183Z,26.30
2018-11-10T18:47:12.586Z,25.00
2018-11-10T18:49:41.016Z,25.43
2018-11-10T18:52:09.482Z,25.23
2018-11-10T18:54:37.842Z,23.40
2018-11-10T18:57:06.552Z,25.90
2018-11-10T18:59:35.791Z,25.00
2018-11-10T19:02:04.167Z,24.70
2018-11-10T19:04:33.334Z,25.23
2018-11-10T19:07:01.762Z,24.57
2018-11-10T19:09:30.201Z,23.03
2018-11-10T19:11:58.791Z,23.37
2018-11-10T19:14:27.193Z,24.63
2018-11-10T19:16:55.658Z,25.50
2018-11-10T19:19:24.026Z,25.57
2018-11-10T19:21:52.442Z,24.70
2018-11-10T19:24:21.215Z,25.37
2018-11-10T19:26:49.572Z,23.67
2018-11-10T19:29:17.932Z,25.73
2018-11-10T19:31:46.968Z,25.93
2018-11-10T19:34:15.618Z,22.97
2018-11-10T19:36:43.987Z,24.83
2018-11-10T19:39:13.393Z,24.80
2018-11-10T19:41:42.093Z,25.40
2018-11-10T19:44:11.008Z,25.33
2018-11-10T19:46:40.478Z,25.63
2018-11-10T19:49:09.374Z,24.50
2018-11-10T19:51:37.942Z,25.03
2018-11-10T19:54:06.222Z,25.60
2018-11-10T19:56:34.601Z,25.77
2018-11-10T19:59:03.011Z,26.30
2018-11-10T20:01:31.532Z,25.03
2018-11-10T20:03:59.943Z,26.37
2018-11-10T20:06:28.371Z,25.57
2018-11-10T20:08:56.721Z,25.30
2018-11-10T20:11:25.459Z,25.70
2018-11-10T20:13:53.858Z,26.90
2018-11-10T20:16:22.265Z,26.73
2018-11-10T20:18:50.622Z,26.60
2018-11-10T20:21:19.012Z,27.07
2018-11-10T20:23:47.588Z,26.07
2018-11-10T20:26:15.968Z,26.20
2018-11-10T20:28:44.388Z,27.50
2018-11-10T20:31:12.833Z,26.37
2018-11-10T20:33:41.263Z,28.03
2018-11-10T20:36:09.700Z,27.13
2018-11-10T20:38:38.068Z,27.37
2018-11-10T20:41:07.076Z,26.77
2018-11-10T20:43:35.516Z,27.57
2018-11-10T20:46:03.896Z,27.87
2018-11-10T20:48:32.256Z,28.37
2018-11-10T20:51:00.804Z,27.80
2018-11-10T20:53:30.466Z,28.57
2018-11-10T20:55:58.931Z,26.83
2018-11-10T20:58:27.401Z,25.87
2018-11-10T21:00:55.795Z,28.23
2018-11-10T21:03:24.749Z,26.43
2018-11-10T21:05:53.183Z,28.57
2018-11-10T21:08:22.071Z,27.87
2018-11-10T21:10:50.423Z,28.10
2018-11-10T21:13:18.811Z,28.10
2018-11-10T21:15:47.182Z,27.60
2018-11-10T21:18:15.613Z,27.50
2018-11-10T21:20:44.047Z,28.23
2018-11-10T21:23:12.484Z,29.50
2018-11-10T21:25:40.876Z,28.07
2018-11-10T21:28:09.236Z,27.30
2018-11-10T21:30:37.663Z,28.80
2018-11-10T21:33:06.076Z,27.83
2018-11-10T21:35:35.130Z,27.57
2018-11-10T21:38:03.441Z,29.63
2018-11-10T21:40:32.436Z,28.83
2018-11-10T21:43:01.030Z,30.63
2018-11-10T21:45:29.487Z,30.37
2018-11-10T21:47:58.061Z,30.33
2018-11-10T21:50:26.844Z,28.30
2018-11-10T21:52:55.239Z,30.20
2018-11-10T21:55:23.612Z,28.73
2018-11-10T21:57:52.025Z,28.80
2018-11-10T22:00:21.764Z,29.23
2018-11-10T22:02:50.661Z,30.43
2018-11-10T22:05:19.550Z,31.37
2018-11-10T22:07:47.928Z,28.87
2018-11-10T22:10:17.438Z,29.40
2018-11-10T22:12:46.104Z,28.67
2018-11-10T22:15:16.864Z,30.27
2018-11-10T22:17:45.802Z,30.33
2018-11-10T22:20:16.483Z,27.60
2018-11-10T22:22:44.971Z,29.53
2018-11-10T22:25:13.852Z,27.90
2018-11-10T22:27:43.625Z,29.90
2018-11-10T22:30:15.218Z,29.50
2018-11-10T22:32:44.097Z,28.57
2018-11-10T22:35:12.608Z,28.77
2018-11-10T22:37:41.092Z,30.90
2018-11-10T22:40:11.494Z,29.00
2018-11-10T22:42:40.275Z,28.97
2018-11-10T22:45:10.412Z,26.80
2018-11-10T22:47:39.439Z,28.50
2018-11-10T22:50:09.725Z,27.37
2018-11-10T22:52:38.212Z,27.60
2018-11-10T22:55:07.387Z,27.47
2018-11-10T22:57:35.840Z,27.23
2018-11-10T23:00:05.376Z,28.43
2018-11-10T23:02:33.854Z,28.90
2018-11-10T23:05:02.249Z,29.10
2018-11-10T23:07:30.749Z,27.07
2018-11-10T23:09:59.144Z,27.13
2018-11-10T23:12:28.077Z,29.57
2018-11-10T23:14:56.458Z,28.47
2018-11-10T23:17:24.860Z,29.73
2018-11-10T23:19:53.203Z,26.63
2018-11-10T23:22:21.552Z,28.07
2018-11-10T23:24:49.937Z,29.17
2018-11-10T23:27:18.311Z,28.37
2018-11-10T23:29:46.787Z,27.20
2018-11-10T23:32:15.157Z,28.87
2018-11-10T23:34:43.553Z,27.30
2018-11-10T23:37:12.181Z,28.00
2018-11-10T23:39:40.621Z,26.43
2018-11-10T23:42:08.963Z,27.60
2018-11-10T23:44:37.376Z,28.67
2018-11-10T23:47:06.029Z,27.83
2018-11-10T23:49:34.704Z,26.87
2018-11-10T23:52:04.034Z,27.30
2018-11-10T23:54:32.401Z,26.00
2018-11-10T23:57:00.983Z,27.27
2018-11-10T23:59:29.404Z,25.80
